Terminal Aerodrome Forecast
Issued by NWS

Home | Current Version | Previous Version | Text Only | Print | Product List | Glossary On
Versions: 1 2 3 4 5 6 7 8 9 10 11 12 13 14 15 16 17 18 19 20 21 22 23
429
FTUS41 KOKX 301938 AAA
TAFHPN
TAF AMD
KHPN 301938Z 3020/0118 17007KT P6SM SCT050
     FM302200 16007KT P6SM SCT150
     FM010200 VRB03KT P6SM BKN250
     FM011100 12004KT P6SM -RA OVC060
     FM011400 12006KT 3SM -RA OVC050
     FM011600 12006KT 2SM -RA OVC020
      AMD NOT SKED=

USA.gov is the U.S. government's official web portal to all federal, state and local government web resources and services.